RYR1VB LICJ-LIRF
Flight info
| Callsign | RYR1VB |
|---|---|
| Flight time | 0h 54m |
| Altitude | 30000 |
| Route | LURON DCT DORAS DCT BEROL DCT PNZ DCT NEKPI DCT LAT |
| Aircraft | B738/M-SDE3FGILRWY/SB1 |
Departure
| Time | 2026-05-05 13:48 |
|---|---|
| Airport | Falcone–Borsellino Airport (LICJ) |
Arrival
| Time | 2026-05-05 14:42 |
|---|---|
| Airport | Rome–Fiumicino Leonardo da Vinci International Airport (LIRF) |
| Time | Latitude | Longitude | Altitude | Speed | Heading |
|---|---|---|---|---|---|
| 2026-05-05 13:33 | 38.18548 | 13.10885 | 52 ft | 0 kts | 247° |
| 2026-05-05 13:41 | 38.18546 | 13.10880 | 52 ft | 2 kts | 247° |
| 2026-05-05 13:41 | 38.18531 | 13.10833 | 49 ft | 9 kts | 247° |
| 2026-05-05 13:42 | 38.18487 | 13.10831 | 52 ft | 8 kts | 126° |
| 2026-05-05 13:42 | 38.18470 | 13.10898 | 52 ft | 9 kts | 99° |
| 2026-05-05 13:42 | 38.18426 | 13.10945 | 52 ft | 10 kts | 179° |
| 2026-05-05 13:42 | 38.18385 | 13.10877 | 50 ft | 11 kts | 247° |
| 2026-05-05 13:43 | 38.18353 | 13.10779 | 52 ft | 14 kts | 247° |
| 2026-05-05 13:43 | 38.18312 | 13.10654 | 52 ft | 16 kts | 247° |
| 2026-05-05 13:43 | 38.18269 | 13.10529 | 50 ft | 15 kts | 246° |
| 2026-05-05 13:43 | 38.18228 | 13.10410 | 50 ft | 14 kts | 247° |
| 2026-05-05 13:44 | 38.18189 | 13.10294 | 52 ft | 14 kts | 247° |
| 2026-05-05 13:44 | 38.18153 | 13.10184 | 52 ft | 13 kts | 247° |
| 2026-05-05 13:44 | 38.18114 | 13.10065 | 49 ft | 16 kts | 247° |
| 2026-05-05 13:44 | 38.18065 | 13.09925 | 52 ft | 18 kts | 245° |
| 2026-05-05 13:45 | 38.18016 | 13.09783 | 52 ft | 17 kts | 247° |
| 2026-05-05 13:45 | 38.17970 | 13.09645 | 50 ft | 17 kts | 246° |
| 2026-05-05 13:45 | 38.17920 | 13.09494 | 52 ft | 19 kts | 247° |
| 2026-05-05 13:45 | 38.17871 | 13.09343 | 49 ft | 18 kts | 247° |
| 2026-05-05 13:46 | 38.17822 | 13.09197 | 51 ft | 18 kts | 246° |
| 2026-05-05 13:46 | 38.17774 | 13.09057 | 52 ft | 17 kts | 246° |
| 2026-05-05 13:46 | 38.17719 | 13.08932 | 52 ft | 16 kts | 221° |
| 2026-05-05 13:46 | 38.17634 | 13.08850 | 51 ft | 15 kts | 217° |
| 2026-05-05 13:47 | 38.17552 | 13.08771 | 50 ft | 15 kts | 217° |
| 2026-05-05 13:47 | 38.17483 | 13.08785 | 52 ft | 11 kts | 104° |
| 2026-05-05 13:47 | 38.17501 | 13.08862 | 48 ft | 13 kts | 66° |
| 2026-05-05 13:47 | 38.17618 | 13.09206 | 50 ft | 75 kts | 66° |
| 2026-05-05 13:48 | 38.17901 | 13.10049 | 52 ft | 130 kts | 67° |
| 2026-05-05 13:48 | 38.18294 | 13.11236 | 312 ft | 149 kts | 68° |
| 2026-05-05 13:48 | 38.18664 | 13.12430 | 988 ft | 148 kts | 66° |
| 2026-05-05 13:48 | 38.19107 | 13.13724 | 1351 ft | 173 kts | 65° |
| 2026-05-05 13:49 | 38.19637 | 13.15235 | 1575 ft | 199 kts | 65° |
| 2026-05-05 13:49 | 38.20225 | 13.16920 | 1763 ft | 218 kts | 66° |
| 2026-05-05 13:49 | 38.20869 | 13.18712 | 2077 ft | 228 kts | 62° |
| 2026-05-05 13:49 | 38.21997 | 13.20147 | 2447 ft | 236 kts | 31° |
| 2026-05-05 13:50 | 38.22981 | 13.20780 | 2684 ft | 245 kts | 25° |
| 2026-05-05 13:50 | 38.24604 | 13.21650 | 2985 ft | 259 kts | 23° |
| 2026-05-05 13:50 | 38.26303 | 13.22520 | 3577 ft | 266 kts | 22° |
| 2026-05-05 13:50 | 38.28027 | 13.23406 | 4294 ft | 269 kts | 22° |
| 2026-05-05 13:51 | 38.29670 | 13.24260 | 4878 ft | 276 kts | 22° |
| 2026-05-05 13:51 | 38.31463 | 13.25201 | 5512 ft | 281 kts | 22° |
| 2026-05-05 13:51 | 38.33272 | 13.26157 | 6312 ft | 281 kts | 22° |
| 2026-05-05 13:51 | 38.35088 | 13.27121 | 6972 ft | 286 kts | 22° |
| 2026-05-05 13:52 | 38.36949 | 13.28112 | 7616 ft | 292 kts | 22° |
| 2026-05-05 13:52 | 38.38825 | 13.29112 | 8369 ft | 294 kts | 21° |
| 2026-05-05 13:52 | 38.41418 | 13.30166 | 9266 ft | 299 kts | 359° |
| 2026-05-05 13:52 | 38.42810 | 13.30002 | 9778 ft | 297 kts | 343° |
| 2026-05-05 13:53 | 38.44773 | 13.29267 | 10420 ft | 303 kts | 338° |
| 2026-05-05 13:53 | 38.46847 | 13.28371 | 10594 ft | 326 kts | 337° |
| 2026-05-05 13:53 | 38.49059 | 13.27391 | 10881 ft | 344 kts | 338° |
| 2026-05-05 13:53 | 38.51348 | 13.26384 | 11469 ft | 351 kts | 338° |
| 2026-05-05 13:54 | 38.53671 | 13.25376 | 12218 ft | 353 kts | 338° |
| 2026-05-05 13:54 | 38.56006 | 13.24372 | 12981 ft | 355 kts | 337° |
| 2026-05-05 13:54 | 38.58361 | 13.23365 | 13730 ft | 359 kts | 337° |
| 2026-05-05 13:54 | 38.60727 | 13.22355 | 14448 ft | 362 kts | 337° |
| 2026-05-05 13:55 | 38.63126 | 13.21333 | 15171 ft | 365 kts | 337° |
| 2026-05-05 13:55 | 38.65543 | 13.20303 | 15913 ft | 367 kts | 337° |
| 2026-05-05 13:55 | 38.67942 | 13.19280 | 16642 ft | 369 kts | 337° |
| 2026-05-05 13:55 | 38.70393 | 13.18234 | 17353 ft | 372 kts | 337° |
| 2026-05-05 13:56 | 38.72861 | 13.17181 | 18066 ft | 375 kts | 337° |
| 2026-05-05 13:56 | 38.75346 | 13.16118 | 18694 ft | 378 kts | 337° |
| 2026-05-05 13:56 | 38.77853 | 13.15046 | 19280 ft | 382 kts | 337° |
| 2026-05-05 13:56 | 38.80387 | 13.13962 | 19856 ft | 385 kts | 337° |
| 2026-05-05 13:57 | 38.82941 | 13.12868 | 20425 ft | 389 kts | 337° |
| 2026-05-05 13:57 | 38.85522 | 13.11777 | 20971 ft | 394 kts | 339° |
| 2026-05-05 13:57 | 38.88228 | 13.11184 | 21488 ft | 404 kts | 351° |
| 2026-05-05 13:57 | 38.91048 | 13.10966 | 22102 ft | 408 kts | 353° |
| 2026-05-05 13:58 | 38.93894 | 13.10816 | 22648 ft | 411 kts | 353° |
| 2026-05-05 13:58 | 38.96761 | 13.10671 | 23166 ft | 414 kts | 353° |
| 2026-05-05 13:58 | 38.99654 | 13.10508 | 23682 ft | 417 kts | 353° |
| 2026-05-05 13:58 | 39.02564 | 13.10323 | 24127 ft | 419 kts | 352° |
| 2026-05-05 13:59 | 39.08423 | 13.09908 | 25070 ft | 423 kts | 352° |
| 2026-05-05 13:59 | 39.11373 | 13.09687 | 25478 ft | 426 kts | 352° |
| 2026-05-05 14:00 | 39.17237 | 13.09245 | 26610 ft | 422 kts | 351° |
| 2026-05-05 14:00 | 39.20155 | 13.09026 | 27266 ft | 418 kts | 351° |
| 2026-05-05 14:00 | 39.23051 | 13.08808 | 27864 ft | 416 kts | 351° |
| 2026-05-05 14:00 | 39.25940 | 13.08589 | 28413 ft | 415 kts | 351° |
| 2026-05-05 14:01 | 39.28824 | 13.08370 | 28976 ft | 414 kts | 351° |
| 2026-05-05 14:01 | 39.31700 | 13.08151 | 29497 ft | 414 kts | 351° |
| 2026-05-05 14:01 | 39.34563 | 13.07932 | 29937 ft | 415 kts | 351° |
| 2026-05-05 14:01 | 39.37463 | 13.07709 | 30054 ft | 421 kts | 351° |
| 2026-05-05 14:02 | 39.43283 | 13.07268 | 30055 ft | 414 kts | 351° |
| 2026-05-05 14:02 | 39.49013 | 13.06833 | 30071 ft | 413 kts | 351° |
| 2026-05-05 14:03 | 39.54777 | 13.06391 | 30070 ft | 416 kts | 351° |
| 2026-05-05 14:03 | 39.60544 | 13.05950 | 30064 ft | 419 kts | 351° |
| 2026-05-05 14:04 | 39.66371 | 13.05502 | 30063 ft | 419 kts | 351° |
| 2026-05-05 14:04 | 39.72194 | 13.05054 | 30055 ft | 419 kts | 351° |
| 2026-05-05 14:05 | 39.77998 | 13.04607 | 30057 ft | 417 kts | 350° |
| 2026-05-05 14:05 | 39.83795 | 13.04158 | 30053 ft | 416 kts | 350° |
| 2026-05-05 14:06 | 39.89537 | 13.03713 | 30055 ft | 415 kts | 350° |
| 2026-05-05 14:06 | 39.95315 | 13.03264 | 30060 ft | 415 kts | 350° |
| 2026-05-05 14:07 | 40.01074 | 13.02816 | 30061 ft | 415 kts | 350° |
| 2026-05-05 14:07 | 40.06841 | 13.02367 | 30059 ft | 415 kts | 350° |
| 2026-05-05 14:08 | 40.12611 | 13.01917 | 30060 ft | 416 kts | 350° |
| 2026-05-05 14:08 | 40.18388 | 13.01465 | 30079 ft | 416 kts | 349° |
| 2026-05-05 14:09 | 40.24136 | 13.01015 | 30060 ft | 417 kts | 349° |
| 2026-05-05 14:09 | 40.29930 | 13.00560 | 30058 ft | 417 kts | 349° |
| 2026-05-05 14:10 | 40.35730 | 13.00104 | 30066 ft | 417 kts | 349° |
| 2026-05-05 14:10 | 40.41522 | 12.99648 | 30074 ft | 417 kts | 349° |
| 2026-05-05 14:11 | 40.47283 | 12.99193 | 30063 ft | 417 kts | 349° |
| 2026-05-05 14:11 | 40.53073 | 12.98735 | 30061 ft | 417 kts | 349° |
| 2026-05-05 14:12 | 40.58872 | 12.98276 | 30063 ft | 416 kts | 349° |
| 2026-05-05 14:12 | 40.61693 | 12.98056 | 30062 ft | 405 kts | 349° |
| 2026-05-05 14:12 | 40.64459 | 12.97845 | 30020 ft | 393 kts | 349° |
| 2026-05-05 14:13 | 40.67166 | 12.97633 | 29724 ft | 386 kts | 349° |
| 2026-05-05 14:13 | 40.69831 | 12.97420 | 29401 ft | 382 kts | 349° |
| 2026-05-05 14:13 | 40.72468 | 12.97207 | 29076 ft | 377 kts | 349° |
| 2026-05-05 14:13 | 40.75075 | 12.96997 | 28699 ft | 374 kts | 349° |
| 2026-05-05 14:14 | 40.77660 | 12.96788 | 28350 ft | 370 kts | 349° |
| 2026-05-05 14:14 | 40.80220 | 12.96582 | 27999 ft | 368 kts | 349° |
| 2026-05-05 14:14 | 40.82763 | 12.96378 | 27650 ft | 365 kts | 349° |
| 2026-05-05 14:14 | 40.85287 | 12.96176 | 27321 ft | 362 kts | 349° |
| 2026-05-05 14:15 | 40.87789 | 12.95975 | 26972 ft | 359 kts | 349° |
| 2026-05-05 14:15 | 40.90276 | 12.95799 | 26630 ft | 359 kts | 353° |
| 2026-05-05 14:15 | 40.92784 | 12.96068 | 26217 ft | 366 kts | 4° |
| 2026-05-05 14:15 | 40.95282 | 12.96769 | 25846 ft | 366 kts | 7° |
| 2026-05-05 14:16 | 40.97759 | 12.97539 | 25491 ft | 365 kts | 7° |
| 2026-05-05 14:16 | 41.00227 | 12.98317 | 25150 ft | 364 kts | 7° |
| 2026-05-05 14:16 | 41.02683 | 12.99082 | 24801 ft | 362 kts | 7° |
| 2026-05-05 14:16 | 41.05127 | 12.99832 | 24473 ft | 360 kts | 7° |
| 2026-05-05 14:17 | 41.07534 | 13.00562 | 24139 ft | 358 kts | 7° |
| 2026-05-05 14:17 | 41.09961 | 13.01292 | 23796 ft | 357 kts | 8° |
| 2026-05-05 14:17 | 41.12380 | 13.02018 | 23417 ft | 356 kts | 8° |
| 2026-05-05 14:17 | 41.14790 | 13.02740 | 23053 ft | 354 kts | 8° |
| 2026-05-05 14:18 | 41.17188 | 13.03458 | 22683 ft | 353 kts | 8° |
| 2026-05-05 14:18 | 41.19580 | 13.04176 | 22334 ft | 350 kts | 8° |
| 2026-05-05 14:18 | 41.21949 | 13.04887 | 22001 ft | 348 kts | 8° |
| 2026-05-05 14:18 | 41.24303 | 13.05594 | 21689 ft | 345 kts | 8° |
| 2026-05-05 14:19 | 41.26636 | 13.06294 | 21357 ft | 343 kts | 8° |
| 2026-05-05 14:19 | 41.28961 | 13.06994 | 21032 ft | 341 kts | 8° |
| 2026-05-05 14:19 | 41.31244 | 13.07642 | 20708 ft | 338 kts | 2° |
| 2026-05-05 14:19 | 41.33546 | 13.07549 | 20355 ft | 327 kts | 343° |
| 2026-05-05 14:20 | 41.35665 | 13.06531 | 19895 ft | 322 kts | 327° |
| 2026-05-05 14:20 | 41.37591 | 13.05042 | 19531 ft | 320 kts | 324° |
| 2026-05-05 14:20 | 41.39485 | 13.03506 | 19222 ft | 318 kts | 324° |
| 2026-05-05 14:20 | 41.41371 | 13.01971 | 18892 ft | 316 kts | 324° |
| 2026-05-05 14:21 | 41.43250 | 13.00453 | 18574 ft | 315 kts | 324° |
| 2026-05-05 14:21 | 41.45127 | 12.98948 | 18238 ft | 314 kts | 324° |
| 2026-05-05 14:21 | 41.46972 | 12.97475 | 17893 ft | 312 kts | 324° |
| 2026-05-05 14:21 | 41.48832 | 12.95995 | 17561 ft | 310 kts | 325° |
| 2026-05-05 14:22 | 41.50681 | 12.94524 | 17236 ft | 308 kts | 325° |
| 2026-05-05 14:22 | 41.52514 | 12.93067 | 16922 ft | 306 kts | 325° |
| 2026-05-05 14:22 | 41.54322 | 12.91589 | 16608 ft | 302 kts | 320° |
| 2026-05-05 14:22 | 41.55917 | 12.89801 | 16290 ft | 297 kts | 313° |
| 2026-05-05 14:23 | 41.57403 | 12.87892 | 15970 ft | 296 kts | 311° |
| 2026-05-05 14:23 | 41.58872 | 12.85976 | 15661 ft | 295 kts | 312° |
| 2026-05-05 14:23 | 41.60346 | 12.84078 | 15355 ft | 293 kts | 312° |
| 2026-05-05 14:23 | 41.61819 | 12.82206 | 15056 ft | 292 kts | 313° |
| 2026-05-05 14:24 | 41.63288 | 12.80361 | 14901 ft | 286 kts | 313° |
| 2026-05-05 14:24 | 41.64727 | 12.78562 | 14764 ft | 281 kts | 313° |
| 2026-05-05 14:24 | 41.66139 | 12.76797 | 14642 ft | 275 kts | 313° |
| 2026-05-05 14:24 | 41.67529 | 12.75058 | 14428 ft | 272 kts | 313° |
| 2026-05-05 14:25 | 41.68894 | 12.73348 | 14172 ft | 271 kts | 313° |
| 2026-05-05 14:25 | 41.70267 | 12.71626 | 13919 ft | 270 kts | 313° |
| 2026-05-05 14:25 | 41.71640 | 12.69902 | 13630 ft | 270 kts | 313° |
| 2026-05-05 14:25 | 41.73011 | 12.68181 | 13320 ft | 270 kts | 313° |
| 2026-05-05 14:26 | 41.74379 | 12.66463 | 13032 ft | 269 kts | 313° |
| 2026-05-05 14:26 | 41.75739 | 12.64753 | 12754 ft | 267 kts | 313° |
| 2026-05-05 14:26 | 41.77093 | 12.63052 | 12486 ft | 266 kts | 313° |
| 2026-05-05 14:26 | 41.78423 | 12.61377 | 12214 ft | 265 kts | 313° |
| 2026-05-05 14:27 | 41.79766 | 12.59688 | 11935 ft | 265 kts | 313° |
| 2026-05-05 14:27 | 41.81228 | 12.58173 | 11649 ft | 269 kts | 327° |
| 2026-05-05 14:27 | 41.82922 | 12.57054 | 11210 ft | 275 kts | 331° |
| 2026-05-05 14:27 | 41.84664 | 12.55974 | 10897 ft | 276 kts | 331° |
| 2026-05-05 14:28 | 41.86414 | 12.54888 | 10603 ft | 276 kts | 331° |
| 2026-05-05 14:28 | 41.88152 | 12.53798 | 10320 ft | 275 kts | 331° |
| 2026-05-05 14:28 | 41.89880 | 12.52704 | 10041 ft | 274 kts | 331° |
| 2026-05-05 14:28 | 41.91602 | 12.51606 | 9747 ft | 273 kts | 331° |
| 2026-05-05 14:29 | 41.93289 | 12.50525 | 9465 ft | 272 kts | 330° |
| 2026-05-05 14:29 | 41.94993 | 12.49429 | 9181 ft | 271 kts | 330° |
| 2026-05-05 14:29 | 41.96692 | 12.48332 | 8893 ft | 270 kts | 330° |
| 2026-05-05 14:29 | 41.98386 | 12.47238 | 8589 ft | 269 kts | 331° |
| 2026-05-05 14:30 | 42.00073 | 12.46146 | 8336 ft | 269 kts | 331° |
| 2026-05-05 14:30 | 42.01760 | 12.45053 | 8058 ft | 269 kts | 331° |
| 2026-05-05 14:30 | 42.03423 | 12.43974 | 7788 ft | 269 kts | 331° |
| 2026-05-05 14:30 | 42.05109 | 12.42881 | 7502 ft | 269 kts | 331° |
| 2026-05-05 14:31 | 42.06789 | 12.41791 | 7238 ft | 266 kts | 331° |
| 2026-05-05 14:31 | 42.08432 | 12.40726 | 6998 ft | 257 kts | 331° |
| 2026-05-05 14:31 | 42.10013 | 12.39702 | 6745 ft | 247 kts | 330° |
| 2026-05-05 14:31 | 42.11507 | 12.38643 | 6469 ft | 236 kts | 318° |
| 2026-05-05 14:32 | 42.12447 | 12.36983 | 6196 ft | 217 kts | 289° |
| 2026-05-05 14:32 | 42.12868 | 12.35073 | 5877 ft | 208 kts | 276° |
| 2026-05-05 14:32 | 42.13119 | 12.33191 | 5625 ft | 200 kts | 275° |
| 2026-05-05 14:32 | 42.13352 | 12.31387 | 5414 ft | 191 kts | 275° |
| 2026-05-05 14:33 | 42.13582 | 12.29644 | 5212 ft | 187 kts | 276° |
| 2026-05-05 14:33 | 42.13813 | 12.27945 | 5043 ft | 182 kts | 275° |
| 2026-05-05 14:33 | 42.14039 | 12.26270 | 4883 ft | 182 kts | 275° |
| 2026-05-05 14:33 | 42.14267 | 12.24580 | 4702 ft | 189 kts | 277° |
| 2026-05-05 14:34 | 42.14510 | 12.22816 | 4488 ft | 192 kts | 275° |
| 2026-05-05 14:34 | 42.14676 | 12.21057 | 4242 ft | 185 kts | 260° |
| 2026-05-05 14:34 | 42.14165 | 12.19584 | 4085 ft | 169 kts | 224° |
| 2026-05-05 14:34 | 42.13189 | 12.18727 | 3918 ft | 173 kts | 199° |
| 2026-05-05 14:35 | 42.12005 | 12.18308 | 3748 ft | 178 kts | 194° |
| 2026-05-05 14:35 | 42.10793 | 12.17943 | 3535 ft | 177 kts | 193° |
| 2026-05-05 14:35 | 42.09598 | 12.17588 | 3296 ft | 174 kts | 193° |
| 2026-05-05 14:35 | 42.08441 | 12.17243 | 3117 ft | 168 kts | 193° |
| 2026-05-05 14:36 | 42.07297 | 12.16949 | 3042 ft | 168 kts | 182° |
| 2026-05-05 14:36 | 42.06142 | 12.17219 | 3041 ft | 171 kts | 165° |
| 2026-05-05 14:36 | 42.04981 | 12.17671 | 3039 ft | 175 kts | 166° |
| 2026-05-05 14:36 | 42.03811 | 12.18132 | 3024 ft | 175 kts | 166° |
| 2026-05-05 14:37 | 42.02671 | 12.18598 | 3013 ft | 172 kts | 166° |
| 2026-05-05 14:37 | 42.01533 | 12.19071 | 2983 ft | 170 kts | 166° |
| 2026-05-05 14:37 | 42.00401 | 12.19542 | 3002 ft | 172 kts | 166° |
| 2026-05-05 14:37 | 41.99243 | 12.20025 | 2980 ft | 176 kts | 166° |
| 2026-05-05 14:38 | 41.98074 | 12.20515 | 2802 ft | 176 kts | 166° |
| 2026-05-05 14:38 | 41.96927 | 12.20995 | 2565 ft | 168 kts | 166° |
| 2026-05-05 14:38 | 41.95856 | 12.21444 | 2371 ft | 155 kts | 166° |
| 2026-05-05 14:38 | 41.94843 | 12.21867 | 2165 ft | 151 kts | 166° |
| 2026-05-05 14:39 | 41.93846 | 12.22283 | 1962 ft | 148 kts | 164° |
| 2026-05-05 14:39 | 41.92910 | 12.22675 | 1800 ft | 133 kts | 163° |
| 2026-05-05 14:39 | 41.92048 | 12.23036 | 1613 ft | 128 kts | 163° |
| 2026-05-05 14:39 | 41.91192 | 12.23394 | 1439 ft | 129 kts | 163° |
| 2026-05-05 14:40 | 41.90332 | 12.23752 | 1261 ft | 130 kts | 163° |
| 2026-05-05 14:40 | 41.89466 | 12.24116 | 1056 ft | 132 kts | 164° |
| 2026-05-05 14:40 | 41.88575 | 12.24490 | 888 ft | 136 kts | 163° |
| 2026-05-05 14:40 | 41.87679 | 12.24866 | 720 ft | 132 kts | 161° |
| 2026-05-05 14:41 | 41.86818 | 12.25222 | 567 ft | 129 kts | 160° |
| 2026-05-05 14:41 | 41.85943 | 12.25586 | 369 ft | 133 kts | 159° |
| 2026-05-05 14:41 | 41.85067 | 12.25954 | 181 ft | 131 kts | 160° |
| 2026-05-05 14:41 | 41.84201 | 12.26317 | 28 ft | 129 kts | 161° |
| 2026-05-05 14:42 | 41.83426 | 12.26641 | 12 ft | 101 kts | 162° |
| 2026-05-05 14:42 | 41.82869 | 12.26874 | 12 ft | 67 kts | 163° |
| 2026-05-05 14:42 | 41.82484 | 12.27035 | 11 ft | 51 kts | 162° |
| 2026-05-05 14:42 | 41.82183 | 12.27140 | 9 ft | 31 kts | 174° |
| 2026-05-05 14:43 | 41.81988 | 12.27121 | 10 ft | 27 kts | 192° |
| 2026-05-05 14:43 | 41.81823 | 12.27071 | 10 ft | 20 kts | 193° |
| 2026-05-05 14:43 | 41.81699 | 12.27050 | 12 ft | 18 kts | 174° |
| 2026-05-05 14:43 | 41.81581 | 12.27090 | 11 ft | 17 kts | 162° |
| 2026-05-05 14:44 | 41.81469 | 12.27137 | 11 ft | 17 kts | 162° |
| 2026-05-05 14:44 | 41.81358 | 12.27183 | 11 ft | 17 kts | 162° |
| 2026-05-05 14:44 | 41.81242 | 12.27232 | 11 ft | 17 kts | 162° |
| 2026-05-05 14:44 | 41.81131 | 12.27279 | 11 ft | 17 kts | 162° |
| 2026-05-05 14:45 | 41.81023 | 12.27324 | 11 ft | 16 kts | 163° |
| 2026-05-05 14:45 | 41.80916 | 12.27349 | 11 ft | 16 kts | 184° |
| 2026-05-05 14:45 | 41.80841 | 12.27335 | 11 ft | 17 kts | 189° |
| 2026-05-05 14:45 | 41.80726 | 12.27307 | 12 ft | 16 kts | 197° |
| 2026-05-05 14:46 | 41.80651 | 12.27205 | 11 ft | 16 kts | 249° |
| 2026-05-05 14:46 | 41.80614 | 12.27071 | 14 ft | 15 kts | 249° |
| 2026-05-05 14:46 | 41.80577 | 12.26939 | 12 ft | 16 kts | 250° |
| 2026-05-05 14:46 | 41.80537 | 12.26794 | 14 ft | 17 kts | 250° |
| 2026-05-05 14:47 | 41.80496 | 12.26645 | 15 ft | 17 kts | 250° |
| 2026-05-05 14:47 | 41.80455 | 12.26495 | 14 ft | 17 kts | 250° |
| 2026-05-05 14:47 | 41.80404 | 12.26372 | 14 ft | 13 kts | 209° |
| 2026-05-05 14:47 | 41.80317 | 12.26385 | 13 ft | 13 kts | 160° |
| 2026-05-05 14:48 | 41.80233 | 12.26412 | 13 ft | 12 kts | 186° |
| 2026-05-05 14:48 | 41.80155 | 12.26368 | 13 ft | 12 kts | 205° |
| 2026-05-05 14:48 | 41.80074 | 12.26318 | 13 ft | 14 kts | 205° |
| 2026-05-05 14:48 | 41.79978 | 12.26259 | 13 ft | 17 kts | 204° |
| 2026-05-05 14:49 | 41.79866 | 12.26190 | 15 ft | 18 kts | 204° |
| 2026-05-05 14:49 | 41.79753 | 12.26137 | 13 ft | 16 kts | 174° |
| 2026-05-05 14:49 | 41.79680 | 12.26138 | 15 ft | 6 kts | 204° |
| 2026-05-05 14:49 | 41.79646 | 12.26117 | 13 ft | 6 kts | 205° |
| 2026-05-05 14:50 | 41.79613 | 12.26113 | 13 ft | 5 kts | 139° |
| 2026-05-05 14:50 | 41.79599 | 12.26155 | 13 ft | 5 kts | 115° |
| 2026-05-05 14:50 | 41.79590 | 12.26180 | 14 ft | 0 kts | 115° |